sensor_id;sensor_type;location;lat;lon;timestamp;temperature;humidity
12819;DHT22;6474;53.474;9.894;2023-07-24T00:01:56;18.30;75.00
12819;DHT22;6474;53.474;9.894;2023-07-24T00:04:24;18.30;75.00
12819;DHT22;6474;53.474;9.894;2023-07-24T00:06:52;18.30;75.00
12819;DHT22;6474;53.474;9.894;2023-07-24T00:09:23;18.30;75.00
12819;DHT22;6474;53.474;9.894;2023-07-24T00:11:51;18.30;75.00
12819;DHT22;6474;53.474;9.894;2023-07-24T00:14:21;18.30;75.00
12819;DHT22;6474;53.474;9.894;2023-07-24T00:16:50;18.30;75.00
12819;DHT22;6474;53.474;9.894;2023-07-24T00:19:21;18.30;75.00
12819;DHT22;6474;53.474;9.894;2023-07-24T00:21:49;18.30;75.00
12819;DHT22;6474;53.474;9.894;2023-07-24T00:24:17;18.30;75.00
12819;DHT22;6474;53.474;9.894;2023-07-24T00:26:48;18.30;75.10
12819;DHT22;6474;53.474;9.894;2023-07-24T00:29:16;18.30;75.10
12819;DHT22;6474;53.474;9.894;2023-07-24T00:31:44;18.30;75.00
12819;DHT22;6474;53.474;9.894;2023-07-24T00:34:12;18.30;75.10
12819;DHT22;6474;53.474;9.894;2023-07-24T00:36:43;18.30;75.10
12819;DHT22;6474;53.474;9.894;2023-07-24T00:39:11;18.20;75.00
12819;DHT22;6474;53.474;9.894;2023-07-24T00:41:44;18.20;75.00
12819;DHT22;6474;53.474;9.894;2023-07-24T00:44:13;18.20;75.00
12819;DHT22;6474;53.474;9.894;2023-07-24T00:46:42;18.20;75.00
12819;DHT22;6474;53.474;9.894;2023-07-24T00:49:11;18.20;75.10
12819;DHT22;6474;53.474;9.894;2023-07-24T00:51:40;18.10;75.00
12819;DHT22;6474;53.474;9.894;2023-07-24T00:54:08;18.10;75.10
12819;DHT22;6474;53.474;9.894;2023-07-24T00:56:36;18.00;75.10
12819;DHT22;6474;53.474;9.894;2023-07-24T00:59:04;18.00;75.20
12819;DHT22;6474;53.474;9.894;2023-07-24T01:01:37;18.00;75.30
12819;DHT22;6474;53.474;9.894;2023-07-24T01:04:05;18.00;75.20
12819;DHT22;6474;53.474;9.894;2023-07-24T01:06:34;18.00;75.20
12819;DHT22;6474;53.474;9.894;2023-07-24T01:09:03;17.90;75.10
12819;DHT22;6474;53.474;9.894;2023-07-24T01:11:36;18.00;75.30
12819;DHT22;6474;53.474;9.894;2023-07-24T01:14:12;18.00;75.20
12819;DHT22;6474;53.474;9.894;2023-07-24T01:16:45;18.00;75.20
12819;DHT22;6474;53.474;9.894;2023-07-24T01:19:20;18.00;75.30
12819;DHT22;6474;53.474;9.894;2023-07-24T01:22:02;18.10;75.40
12819;DHT22;6474;53.474;9.894;2023-07-24T01:24:37;18.10;75.40
12819;DHT22;6474;53.474;9.894;2023-07-24T01:27:09;18.10;75.40
12819;DHT22;6474;53.474;9.894;2023-07-24T01:29:37;18.20;75.50
12819;DHT22;6474;53.474;9.894;2023-07-24T01:32:06;18.20;75.50
12819;DHT22;6474;53.474;9.894;2023-07-24T01:34:35;18.30;75.60
12819;DHT22;6474;53.474;9.894;2023-07-24T01:37:03;18.30;75.60
12819;DHT22;6474;53.474;9.894;2023-07-24T01:39:31;18.30;75.60
12819;DHT22;6474;53.474;9.894;2023-07-24T01:42:02;18.30;75.60
12819;DHT22;6474;53.474;9.894;2023-07-24T01:44:34;18.30;75.50
12819;DHT22;6474;53.474;9.894;2023-07-24T01:47:02;18.30;75.40
12819;DHT22;6474;53.474;9.894;2023-07-24T01:49:32;18.30;75.40
12819;DHT22;6474;53.474;9.894;2023-07-24T01:52:00;18.30;75.30
12819;DHT22;6474;53.474;9.894;2023-07-24T01:54:28;18.30;75.30
12819;DHT22;6474;53.474;9.894;2023-07-24T01:56:56;18.30;75.50
12819;DHT22;6474;53.474;9.894;2023-07-24T01:59:24;18.30;75.60
12819;DHT22;6474;53.474;9.894;2023-07-24T02:01:54;18.30;75.60
12819;DHT22;6474;53.474;9.894;2023-07-24T02:04:22;18.30;75.60
12819;DHT22;6474;53.474;9.894;2023-07-24T02:06:50;18.40;75.70
12819;DHT22;6474;53.474;9.894;2023-07-24T02:09:19;18.40;75.70
12819;DHT22;6474;53.474;9.894;2023-07-24T02:11:47;18.40;75.70
12819;DHT22;6474;53.474;9.894;2023-07-24T02:14:17;18.40;75.70
12819;DHT22;6474;53.474;9.894;2023-07-24T02:16:49;18.40;75.70
12819;DHT22;6474;53.474;9.894;2023-07-24T02:19:19;18.40;75.60
12819;DHT22;6474;53.474;9.894;2023-07-24T02:21:47;18.40;75.60
12819;DHT22;6474;53.474;9.894;2023-07-24T02:24:15;18.40;75.60
12819;DHT22;6474;53.474;9.894;2023-07-24T02:26:44;18.40;75.70
12819;DHT22;6474;53.474;9.894;2023-07-24T02:29:12;18.40;75.70
12819;DHT22;6474;53.474;9.894;2023-07-24T02:31:40;18.40;75.70
12819;DHT22;6474;53.474;9.894;2023-07-24T02:34:09;18.40;75.70
12819;DHT22;6474;53.474;9.894;2023-07-24T02:36:38;18.40;75.70
12819;DHT22;6474;53.474;9.894;2023-07-24T02:39:09;18.40;75.70
12819;DHT22;6474;53.474;9.894;2023-07-24T02:41:37;18.30;75.60
12819;DHT22;6474;53.474;9.894;2023-07-24T02:44:04;18.30;75.60
12819;DHT22;6474;53.474;9.894;2023-07-24T02:46:34;18.30;75.60
12819;DHT22;6474;53.474;9.894;2023-07-24T02:49:02;18.30;75.60
12819;DHT22;6474;53.474;9.894;2023-07-24T02:51:31;18.30;75.60
12819;DHT22;6474;53.474;9.894;2023-07-24T02:54:01;18.20;75.50
12819;DHT22;6474;53.474;9.894;2023-07-24T02:56:30;18.20;75.50
12819;DHT22;6474;53.474;9.894;2023-07-24T02:58:59;18.10;75.40
12819;DHT22;6474;53.474;9.894;2023-07-24T03:01:27;18.00;75.20
12819;DHT22;6474;53.474;9.894;2023-07-24T03:04:00;18.00;75.40
12819;DHT22;6474;53.474;9.894;2023-07-24T03:06:29;18.00;75.50
12819;DHT22;6474;53.474;9.894;2023-07-24T03:08:58;17.90;75.50
12819;DHT22;6474;53.474;9.894;2023-07-24T03:11:29;17.90;75.60
12819;DHT22;6474;53.474;9.894;2023-07-24T03:13:57;17.90;75.60
12819;DHT22;6474;53.474;9.894;2023-07-24T03:16:25;17.90;75.70
12819;DHT22;6474;53.474;9.894;2023-07-24T03:18:56;17.90;75.70
12819;DHT22;6474;53.474;9.894;2023-07-24T03:21:24;17.80;75.60
12819;DHT22;6474;53.474;9.894;2023-07-24T03:23:53;17.80;75.70
12819;DHT22;6474;53.474;9.894;2023-07-24T03:26:22;17.80;75.70
12819;DHT22;6474;53.474;9.894;2023-07-24T03:28:53;17.80;75.80
12819;DHT22;6474;53.474;9.894;2023-07-24T03:31:23;17.70;75.70
12819;DHT22;6474;53.474;9.894;2023-07-24T03:33:52;17.70;75.70
12819;DHT22;6474;53.474;9.894;2023-07-24T03:36:20;17.70;75.80
12819;DHT22;6474;53.474;9.894;2023-07-24T03:38:50;17.70;75.80
12819;DHT22;6474;53.474;9.894;2023-07-24T03:41:18;17.70;76.50
12819;DHT22;6474;53.474;9.894;2023-07-24T03:43:47;17.70;75.80
12819;DHT22;6474;53.474;9.894;2023-07-24T03:46:17;17.70;75.90
12819;DHT22;6474;53.474;9.894;2023-07-24T03:48:45;17.70;75.90
12819;DHT22;6474;53.474;9.894;2023-07-24T03:51:13;17.70;75.90
12819;DHT22;6474;53.474;9.894;2023-07-24T03:53:41;17.70;75.90
12819;DHT22;6474;53.474;9.894;2023-07-24T03:56:09;17.60;75.80
12819;DHT22;6474;53.474;9.894;2023-07-24T03:58:39;17.70;75.90
12819;DHT22;6474;53.474;9.894;2023-07-24T04:01:08;17.70;75.90
12819;DHT22;6474;53.474;9.894;2023-07-24T04:03:38;17.70;75.90
12819;DHT22;6474;53.474;9.894;2023-07-24T04:06:06;17.70;75.90
12819;DHT22;6474;53.474;9.894;2023-07-24T04:08:34;17.70;76.00
12819;DHT22;6474;53.474;9.894;2023-07-24T04:11:02;17.70;76.00
12819;DHT22;6474;53.474;9.894;2023-07-24T04:13:31;17.70;76.00
12819;DHT22;6474;53.474;9.894;2023-07-24T04:15:59;17.80;76.00
12819;DHT22;6474;53.474;9.894;2023-07-24T04:18:28;17.80;76.00
12819;DHT22;6474;53.474;9.894;2023-07-24T04:20:57;17.80;75.90
12819;DHT22;6474;53.474;9.894;2023-07-24T04:23:25;17.80;75.90
12819;DHT22;6474;53.474;9.894;2023-07-24T04:25:54;17.90;76.00
12819;DHT22;6474;53.474;9.894;2023-07-24T04:28:22;17.90;76.00
12819;DHT22;6474;53.474;9.894;2023-07-24T04:30:49;18.00;76.00
12819;DHT22;6474;53.474;9.894;2023-07-24T04:33:19;18.10;76.10
12819;DHT22;6474;53.474;9.894;2023-07-24T04:35:48;18.10;76.00
12819;DHT22;6474;53.474;9.894;2023-07-24T04:38:18;18.20;75.90
12819;DHT22;6474;53.474;9.894;2023-07-24T04:40:46;18.20;75.80
12819;DHT22;6474;53.474;9.894;2023-07-24T04:43:14;18.30;76.60
12819;DHT22;6474;53.474;9.894;2023-07-24T04:45:42;18.30;75.80
12819;DHT22;6474;53.474;9.894;2023-07-24T04:48:09;18.30;75.80
12819;DHT22;6474;53.474;9.894;2023-07-24T04:50:37;18.40;75.80
12819;DHT22;6474;53.474;9.894;2023-07-24T04:53:05;18.40;76.50
12819;DHT22;6474;53.474;9.894;2023-07-24T04:55:35;18.40;75.70
12819;DHT22;6474;53.474;9.894;2023-07-24T04:58:03;18.40;75.70
12819;DHT22;6474;53.474;9.894;2023-07-24T05:00:31;18.50;75.80
12819;DHT22;6474;53.474;9.894;2023-07-24T05:02:59;18.50;75.80
12819;DHT22;6474;53.474;9.894;2023-07-24T05:05:27;18.50;75.80
12819;DHT22;6474;53.474;9.894;2023-07-24T05:07:55;18.50;75.80
12819;DHT22;6474;53.474;9.894;2023-07-24T05:10:23;18.50;75.80
12819;DHT22;6474;53.474;9.894;2023-07-24T05:12:52;18.50;75.90
12819;DHT22;6474;53.474;9.894;2023-07-24T05:15:23;18.60;76.20
12819;DHT22;6474;53.474;9.894;2023-07-24T05:17:51;18.70;76.30
12819;DHT22;6474;53.474;9.894;2023-07-24T05:20:21;18.80;76.40
12819;DHT22;6474;53.474;9.894;2023-07-24T05:22:49;18.90;77.10
12819;DHT22;6474;53.474;9.894;2023-07-24T05:25:17;19.00;76.50
12819;DHT22;6474;53.474;9.894;2023-07-24T05:27:45;19.20;76.60
12819;DHT22;6474;53.474;9.894;2023-07-24T05:30:14;19.30;76.70
12819;DHT22;6474;53.474;9.894;2023-07-24T05:32:42;19.40;76.80
12819;DHT22;6474;53.474;9.894;2023-07-24T05:35:10;19.50;76.70
12819;DHT22;6474;53.474;9.894;2023-07-24T05:37:38;19.60;76.60
12819;DHT22;6474;53.474;9.894;2023-07-24T05:40:07;19.60;76.50
12819;DHT22;6474;53.474;9.894;2023-07-24T05:42:35;19.60;76.50
12819;DHT22;6474;53.474;9.894;2023-07-24T05:45:08;19.70;76.60
12819;DHT22;6474;53.474;9.894;2023-07-24T05:47:38;19.60;76.50
12819;DHT22;6474;53.474;9.894;2023-07-24T05:50:07;19.60;76.50
12819;DHT22;6474;53.474;9.894;2023-07-24T05:52:35;19.60;77.30
12819;DHT22;6474;53.474;9.894;2023-07-24T05:55:03;19.60;76.60
12819;DHT22;6474;53.474;9.894;2023-07-24T05:57:32;19.50;76.50
12819;DHT22;6474;53.474;9.894;2023-07-24T06:00:00;19.50;76.60
12819;DHT22;6474;53.474;9.894;2023-07-24T06:02:28;19.50;76.70
12819;DHT22;6474;53.474;9.894;2023-07-24T06:04:57;19.50;76.90
12819;DHT22;6474;53.474;9.894;2023-07-24T06:07:25;19.40;76.80
12819;DHT22;6474;53.474;9.894;2023-07-24T06:09:53;19.50;76.90
12819;DHT22;6474;53.474;9.894;2023-07-24T06:12:21;19.50;76.90
12819;DHT22;6474;53.474;9.894;2023-07-24T06:14:49;19.50;76.90
12819;DHT22;6474;53.474;9.894;2023-07-24T06:17:17;19.50;76.90
12819;DHT22;6474;53.474;9.894;2023-07-24T06:19:45;19.50;76.90
12819;DHT22;6474;53.474;9.894;2023-07-24T06:22:14;19.50;76.90
12819;DHT22;6474;53.474;9.894;2023-07-24T06:24:43;19.50;76.90
12819;DHT22;6474;53.474;9.894;2023-07-24T06:27:10;19.50;76.90
12819;DHT22;6474;53.474;9.894;2023-07-24T06:29:38;19.50;76.90
12819;DHT22;6474;53.474;9.894;2023-07-24T06:32:10;19.60;77.00
12819;DHT22;6474;53.474;9.894;2023-07-24T06:34:37;19.60;77.00
12819;DHT22;6474;53.474;9.894;2023-07-24T06:37:05;19.70;77.10
12819;DHT22;6474;53.474;9.894;2023-07-24T06:39:50;19.80;77.10
12819;DHT22;6474;53.474;9.894;2023-07-24T06:42:17;19.80;76.90
12819;DHT22;6474;53.474;9.894;2023-07-24T06:44:45;19.70;76.70
12819;DHT22;6474;53.474;9.894;2023-07-24T06:47:13;19.70;76.80
12819;DHT22;6474;53.474;9.894;2023-07-24T06:49:41;19.70;76.80
12819;DHT22;6474;53.474;9.894;2023-07-24T06:52:09;19.80;76.90
12819;DHT22;6474;53.474;9.894;2023-07-24T06:54:37;19.80;76.90
12819;DHT22;6474;53.474;9.894;2023-07-24T06:57:06;19.80;76.80
12819;DHT22;6474;53.474;9.894;2023-07-24T06:59:34;19.80;76.80
12819;DHT22;6474;53.474;9.894;2023-07-24T07:02:05;19.80;77.10
12819;DHT22;6474;53.474;9.894;2023-07-24T07:04:33;19.90;77.30
12819;DHT22;6474;53.474;9.894;2023-07-24T07:07:01;20.00;77.10
12819;DHT22;6474;53.474;9.894;2023-07-24T07:09:28;20.00;77.00
12819;DHT22;6474;53.474;9.894;2023-07-24T07:11:56;20.00;77.00
12819;DHT22;6474;53.474;9.894;2023-07-24T07:14:26;20.00;77.20
12819;DHT22;6474;53.474;9.894;2023-07-24T07:16:53;20.00;77.00
12819;DHT22;6474;53.474;9.894;2023-07-24T07:19:21;19.90;76.90
12819;DHT22;6474;53.474;9.894;2023-07-24T07:21:49;19.90;77.00
12819;DHT22;6474;53.474;9.894;2023-07-24T07:24:17;19.90;77.10
12819;DHT22;6474;53.474;9.894;2023-07-24T07:26:46;20.00;77.20
12819;DHT22;6474;53.474;9.894;2023-07-24T07:29:14;20.00;77.20
12819;DHT22;6474;53.474;9.894;2023-07-24T07:31:44;20.10;77.30
12819;DHT22;6474;53.474;9.894;2023-07-24T07:34:12;20.10;77.20
12819;DHT22;6474;53.474;9.894;2023-07-24T07:36:40;20.20;77.10
12819;DHT22;6474;53.474;9.894;2023-07-24T07:39:08;20.30;77.10
12819;DHT22;6474;53.474;9.894;2023-07-24T07:41:36;20.40;77.10
12819;DHT22;6474;53.474;9.894;2023-07-24T07:44:04;20.50;77.00
12819;DHT22;6474;53.474;9.894;2023-07-24T07:46:32;20.60;77.00
12819;DHT22;6474;53.474;9.894;2023-07-24T07:49:02;20.60;76.80
12819;DHT22;6474;53.474;9.894;2023-07-24T07:51:29;20.60;76.80
12819;DHT22;6474;53.474;9.894;2023-07-24T07:53:57;20.50;76.80
12819;DHT22;6474;53.474;9.894;2023-07-24T07:56:25;20.50;76.90
12819;DHT22;6474;53.474;9.894;2023-07-24T07:58:54;20.50;76.90
12819;DHT22;6474;53.474;9.894;2023-07-24T08:01:22;20.50;76.90
12819;DHT22;6474;53.474;9.894;2023-07-24T08:03:49;20.50;76.90
12819;DHT22;6474;53.474;9.894;2023-07-24T08:06:19;20.50;77.00
12819;DHT22;6474;53.474;9.894;2023-07-24T08:08:47;20.50;77.00
12819;DHT22;6474;53.474;9.894;2023-07-24T08:11:15;20.50;77.00
12819;DHT22;6474;53.474;9.894;2023-07-24T08:13:43;20.50;77.00
12819;DHT22;6474;53.474;9.894;2023-07-24T08:16:14;20.50;77.00
12819;DHT22;6474;53.474;9.894;2023-07-24T08:18:45;20.50;77.20
12819;DHT22;6474;53.474;9.894;2023-07-24T08:21:14;20.40;77.10
12819;DHT22;6474;53.474;9.894;2023-07-24T08:23:44;20.50;78.00
12819;DHT22;6474;53.474;9.894;2023-07-24T08:26:11;20.50;77.20
12819;DHT22;6474;53.474;9.894;2023-07-24T08:28:39;20.60;77.20
12819;DHT22;6474;53.474;9.894;2023-07-24T08:31:08;20.70;77.30
12819;DHT22;6474;53.474;9.894;2023-07-24T08:33:37;20.80;77.30
12819;DHT22;6474;53.474;9.894;2023-07-24T08:36:06;20.80;77.20
12819;DHT22;6474;53.474;9.894;2023-07-24T08:38:34;20.90;77.20
12819;DHT22;6474;53.474;9.894;2023-07-24T08:41:06;20.90;77.10
12819;DHT22;6474;53.474;9.894;2023-07-24T08:43:39;20.90;77.20
12819;DHT22;6474;53.474;9.894;2023-07-24T08:46:08;20.90;77.10
12819;DHT22;6474;53.474;9.894;2023-07-24T08:48:38;20.90;77.10
12819;DHT22;6474;53.474;9.894;2023-07-24T08:51:07;21.00;77.10
12819;DHT22;6474;53.474;9.894;2023-07-24T08:53:36;21.00;76.90
12819;DHT22;6474;53.474;9.894;2023-07-24T08:56:08;21.10;76.90
12819;DHT22;6474;53.474;9.894;2023-07-24T08:58:36;21.10;76.80
12819;DHT22;6474;53.474;9.894;2023-07-24T09:01:06;21.00;76.80
12819;DHT22;6474;53.474;9.894;2023-07-24T09:03:35;20.90;76.70
12819;DHT22;6474;53.474;9.894;2023-07-24T09:06:04;20.90;77.00
12819;DHT22;6474;53.474;9.894;2023-07-24T09:08:36;20.80;77.10
12819;DHT22;6474;53.474;9.894;2023-07-24T09:11:07;20.80;77.20
12819;DHT22;6474;53.474;9.894;2023-07-24T09:13:37;20.90;77.40
12819;DHT22;6474;53.474;9.894;2023-07-24T09:16:06;20.90;77.40
12819;DHT22;6474;53.474;9.894;2023-07-24T09:18:41;21.00;77.50
12819;DHT22;6474;53.474;9.894;2023-07-24T09:21:10;21.20;77.70
12819;DHT22;6474;53.474;9.894;2023-07-24T09:23:38;21.30;78.20
12819;DHT22;6474;53.474;9.894;2023-07-24T09:26:08;21.50;77.30
12819;DHT22;6474;53.474;9.894;2023-07-24T09:28:36;21.60;77.40
12819;DHT22;6474;53.474;9.894;2023-07-24T09:31:04;21.70;77.40
12819;DHT22;6474;53.474;9.894;2023-07-24T09:33:36;21.70;77.30
12819;DHT22;6474;53.474;9.894;2023-07-24T09:36:06;21.70;77.20
12819;DHT22;6474;53.474;9.894;2023-07-24T09:38:36;21.60;77.00
12819;DHT22;6474;53.474;9.894;2023-07-24T09:41:05;21.50;77.00
12819;DHT22;6474;53.474;9.894;2023-07-24T09:43:35;21.50;77.30
12819;DHT22;6474;53.474;9.894;2023-07-24T09:46:07;21.70;77.50
12819;DHT22;6474;53.474;9.894;2023-07-24T09:48:37;21.70;77.20
12819;DHT22;6474;53.474;9.894;2023-07-24T09:51:28;21.90;77.00
12819;DHT22;6474;53.474;9.894;2023-07-24T09:54:04;21.90;76.90
12819;DHT22;6474;53.474;9.894;2023-07-24T09:56:34;22.00;76.90
12819;DHT22;6474;53.474;9.894;2023-07-24T09:59:21;22.10;76.90
12819;DHT22;6474;53.474;9.894;2023-07-24T10:01:49;22.10;76.90
12819;DHT22;6474;53.474;9.894;2023-07-24T10:04:18;22.10;76.90
12819;DHT22;6474;53.474;9.894;2023-07-24T10:06:48;22.10;77.00
12819;DHT22;6474;53.474;9.894;2023-07-24T10:09:16;22.00;76.90
12819;DHT22;6474;53.474;9.894;2023-07-24T10:11:45;21.90;76.90
12819;DHT22;6474;53.474;9.894;2023-07-24T10:14:14;21.90;77.00
12819;DHT22;6474;53.474;9.894;2023-07-24T10:16:44;21.90;77.20
12819;DHT22;6474;53.474;9.894;2023-07-24T10:19:14;21.90;77.20
12819;DHT22;6474;53.474;9.894;2023-07-24T10:21:47;21.90;77.30
12819;DHT22;6474;53.474;9.894;2023-07-24T10:24:15;21.90;77.20
12819;DHT22;6474;53.474;9.894;2023-07-24T10:27:03;22.00;77.30
12819;DHT22;6474;53.474;9.894;2023-07-24T10:29:34;22.00;77.30
12819;DHT22;6474;53.474;9.894;2023-07-24T10:32:16;22.00;77.10
12819;DHT22;6474;53.474;9.894;2023-07-24T10:34:45;22.20;77.20
12819;DHT22;6474;53.474;9.894;2023-07-24T10:37:13;22.40;77.20
12819;DHT22;6474;53.474;9.894;2023-07-24T10:39:41;22.50;76.90
12819;DHT22;6474;53.474;9.894;2023-07-24T10:42:10;22.50;76.70
12819;DHT22;6474;53.474;9.894;2023-07-24T10:44:38;22.60;76.70
12819;DHT22;6474;53.474;9.894;2023-07-24T10:47:08;22.70;76.80
12819;DHT22;6474;53.474;9.894;2023-07-24T10:49:36;22.70;76.70
12819;DHT22;6474;53.474;9.894;2023-07-24T10:52:07;22.70;76.70
12819;DHT22;6474;53.474;9.894;2023-07-24T10:54:35;22.80;76.70
12819;DHT22;6474;53.474;9.894;2023-07-24T10:57:05;23.00;76.50
12819;DHT22;6474;53.474;9.894;2023-07-24T10:59:37;23.00;76.30
12819;DHT22;6474;53.474;9.894;2023-07-24T11:02:08;22.90;76.20
12819;DHT22;6474;53.474;9.894;2023-07-24T11:04:37;22.80;76.30
12819;DHT22;6474;53.474;9.894;2023-07-24T11:07:05;22.80;76.40
12819;DHT22;6474;53.474;9.894;2023-07-24T11:09:37;22.90;76.40
12819;DHT22;6474;53.474;9.894;2023-07-24T11:12:12;23.00;76.50
12819;DHT22;6474;53.474;9.894;2023-07-24T11:14:51;22.90;76.30
12819;DHT22;6474;53.474;9.894;2023-07-24T11:17:33;22.80;76.30
12819;DHT22;6474;53.474;9.894;2023-07-24T11:20:09;22.60;76.30
12819;DHT22;6474;53.474;9.894;2023-07-24T11:22:42;22.50;76.50
12819;DHT22;6474;53.474;9.894;2023-07-24T11:25:11;22.40;76.60
12819;DHT22;6474;53.474;9.894;2023-07-24T11:27:42;22.30;76.70
12819;DHT22;6474;53.474;9.894;2023-07-24T11:30:18;22.30;76.90
12819;DHT22;6474;53.474;9.894;2023-07-24T11:32:48;22.30;77.00
12819;DHT22;6474;53.474;9.894;2023-07-24T11:35:16;22.50;77.20
12819;DHT22;6474;53.474;9.894;2023-07-24T11:37:45;22.70;77.00
12819;DHT22;6474;53.474;9.894;2023-07-24T11:40:14;23.00;76.80
12819;DHT22;6474;53.474;9.894;2023-07-24T11:42:43;23.20;76.50
12819;DHT22;6474;53.474;9.894;2023-07-24T11:45:11;23.50;76.10
12819;DHT22;6474;53.474;9.894;2023-07-24T11:47:44;23.60;75.90
12819;DHT22;6474;53.474;9.894;2023-07-24T11:50:14;23.70;76.10
12819;DHT22;6474;53.474;9.894;2023-07-24T11:52:44;23.80;75.80
12819;DHT22;6474;53.474;9.894;2023-07-24T11:55:13;23.90;75.50
12819;DHT22;6474;53.474;9.894;2023-07-24T11:57:41;23.80;75.40
12819;DHT22;6474;53.474;9.894;2023-07-24T12:00:21;23.70;75.30
12819;DHT22;6474;53.474;9.894;2023-07-24T12:02:50;23.60;75.60
12819;DHT22;6474;53.474;9.894;2023-07-24T12:05:20;23.70;75.70
12819;DHT22;6474;53.474;9.894;2023-07-24T12:07:48;23.70;75.50
12819;DHT22;6474;53.474;9.894;2023-07-24T12:10:25;23.60;75.30
12819;DHT22;6474;53.474;9.894;2023-07-24T12:12:57;23.50;75.30
12819;DHT22;6474;53.474;9.894;2023-07-24T12:15:29;23.50;75.70
12819;DHT22;6474;53.474;9.894;2023-07-24T12:17:57;23.60;75.50
12819;DHT22;6474;53.474;9.894;2023-07-24T12:20:27;23.70;75.40
12819;DHT22;6474;53.474;9.894;2023-07-24T12:22:55;23.60;75.10
12819;DHT22;6474;53.474;9.894;2023-07-24T12:25:23;23.50;75.20
12819;DHT22;6474;53.474;9.894;2023-07-24T12:27:51;23.40;75.40
12819;DHT22;6474;53.474;9.894;2023-07-24T12:30:19;23.40;75.70
12819;DHT22;6474;53.474;9.894;2023-07-24T12:32:47;23.40;75.70
12819;DHT22;6474;53.474;9.894;2023-07-24T12:35:15;23.30;75.60
12819;DHT22;6474;53.474;9.894;2023-07-24T12:37:45;23.20;75.50
12819;DHT22;6474;53.474;9.894;2023-07-24T12:40:13;23.20;75.50
12819;DHT22;6474;53.474;9.894;2023-07-24T12:42:41;23.10;75.40
12819;DHT22;6474;53.474;9.894;2023-07-24T12:45:09;23.00;75.40
12819;DHT22;6474;53.474;9.894;2023-07-24T12:47:37;22.90;75.50
12819;DHT22;6474;53.474;9.894;2023-07-24T12:50:05;22.90;75.70
12819;DHT22;6474;53.474;9.894;2023-07-24T12:52:34;23.00;75.70
12819;DHT22;6474;53.474;9.894;2023-07-24T12:55:05;23.20;75.60
12819;DHT22;6474;53.474;9.894;2023-07-24T12:57:33;23.40;75.50
12819;DHT22;6474;53.474;9.894;2023-07-24T13:00:02;23.60;75.10
12819;DHT22;6474;53.474;9.894;2023-07-24T13:02:31;23.70;74.80
12819;DHT22;6474;53.474;9.894;2023-07-24T13:04:59;23.80;74.60
12819;DHT22;6474;53.474;9.894;2023-07-24T13:07:27;23.70;74.40
12819;DHT22;6474;53.474;9.894;2023-07-24T13:09:56;23.60;74.40
12819;DHT22;6474;53.474;9.894;2023-07-24T13:12:25;23.50;74.60
12819;DHT22;6474;53.474;9.894;2023-07-24T13:14:53;23.50;74.70
12819;DHT22;6474;53.474;9.894;2023-07-24T13:17:21;23.70;74.80
12819;DHT22;6474;53.474;9.894;2023-07-24T13:19:49;23.80;74.60
12819;DHT22;6474;53.474;9.894;2023-07-24T13:22:17;24.00;74.50
12819;DHT22;6474;53.474;9.894;2023-07-24T13:24:45;24.00;74.20
12819;DHT22;6474;53.474;9.894;2023-07-24T13:27:15;24.10;74.10
12819;DHT22;6474;53.474;9.894;2023-07-24T13:29:45;24.20;74.00
12819;DHT22;6474;53.474;9.894;2023-07-24T13:32:13;24.30;73.90
12819;DHT22;6474;53.474;9.894;2023-07-24T13:34:42;24.50;74.00
12819;DHT22;6474;53.474;9.894;2023-07-24T13:37:11;24.60;73.70
12819;DHT22;6474;53.474;9.894;2023-07-24T13:39:39;24.40;73.40
12819;DHT22;6474;53.474;9.894;2023-07-24T13:42:07;24.20;73.60
12819;DHT22;6474;53.474;9.894;2023-07-24T13:44:35;24.20;74.00
12819;DHT22;6474;53.474;9.894;2023-07-24T13:47:05;24.00;74.00
12819;DHT22;6474;53.474;9.894;2023-07-24T13:49:33;24.00;74.20
12819;DHT22;6474;53.474;9.894;2023-07-24T13:52:01;24.00;74.40
12819;DHT22;6474;53.474;9.894;2023-07-24T13:54:29;24.00;74.60
12819;DHT22;6474;53.474;9.894;2023-07-24T13:56:56;24.20;74.70
12819;DHT22;6474;53.474;9.894;2023-07-24T13:59:24;24.40;74.60
12819;DHT22;6474;53.474;9.894;2023-07-24T14:01:52;24.70;74.40
12819;DHT22;6474;53.474;9.894;2023-07-24T14:04:21;24.80;74.00
12819;DHT22;6474;53.474;9.894;2023-07-24T14:06:49;24.90;73.70
12819;DHT22;6474;53.474;9.894;2023-07-24T14:09:17;24.80;73.70
12819;DHT22;6474;53.474;9.894;2023-07-24T14:11:45;24.80;74.00
12819;DHT22;6474;53.474;9.894;2023-07-24T14:14:13;24.70;74.00
12819;DHT22;6474;53.474;9.894;2023-07-24T14:16:41;24.70;74.30
12819;DHT22;6474;53.474;9.894;2023-07-24T14:19:09;24.80;74.50
12819;DHT22;6474;53.474;9.894;2023-07-24T14:21:38;24.80;74.50
12819;DHT22;6474;53.474;9.894;2023-07-24T14:24:06;25.00;74.60
12819;DHT22;6474;53.474;9.894;2023-07-24T14:26:34;25.20;74.30
12819;DHT22;6474;53.474;9.894;2023-07-24T14:29:05;25.30;74.10
12819;DHT22;6474;53.474;9.894;2023-07-24T14:31:33;25.30;74.00
12819;DHT22;6474;53.474;9.894;2023-07-24T14:34:00;25.20;73.80
12819;DHT22;6474;53.474;9.894;2023-07-24T14:36:29;25.10;73.90
12819;DHT22;6474;53.474;9.894;2023-07-24T14:39:02;24.90;73.70
12819;DHT22;6474;53.474;9.894;2023-07-24T14:41:30;24.70;74.00
12819;DHT22;6474;53.474;9.894;2023-07-24T14:43:58;24.60;74.30
12819;DHT22;6474;53.474;9.894;2023-07-24T14:46:26;24.50;74.50
12819;DHT22;6474;53.474;9.894;2023-07-24T14:48:54;24.50;74.60
12819;DHT22;6474;53.474;9.894;2023-07-24T14:51:23;24.40;74.60
12819;DHT22;6474;53.474;9.894;2023-07-24T14:53:51;24.40;74.80
12819;DHT22;6474;53.474;9.894;2023-07-24T14:56:22;24.40;74.90
12819;DHT22;6474;53.474;9.894;2023-07-24T14:58:49;24.40;74.90
12819;DHT22;6474;53.474;9.894;2023-07-24T15:01:17;24.30;74.90
12819;DHT22;6474;53.474;9.894;2023-07-24T15:03:46;24.30;74.90
12819;DHT22;6474;53.474;9.894;2023-07-24T15:06:14;24.20;74.90
12819;DHT22;6474;53.474;9.894;2023-07-24T15:08:42;24.20;74.90
12819;DHT22;6474;53.474;9.894;2023-07-24T15:11:09;24.20;74.90
12819;DHT22;6474;53.474;9.894;2023-07-24T15:13:39;24.20;74.90
12819;DHT22;6474;53.474;9.894;2023-07-24T15:16:07;24.10;74.80
12819;DHT22;6474;53.474;9.894;2023-07-24T15:18:35;24.10;74.90
12819;DHT22;6474;53.474;9.894;2023-07-24T15:21:03;24.00;74.80
12819;DHT22;6474;53.474;9.894;2023-07-24T15:23:31;24.00;74.90
12819;DHT22;6474;53.474;9.894;2023-07-24T15:25:58;24.00;74.90
12819;DHT22;6474;53.474;9.894;2023-07-24T15:28:26;23.90;74.80
12819;DHT22;6474;53.474;9.894;2023-07-24T15:30:56;23.90;74.80
12819;DHT22;6474;53.474;9.894;2023-07-24T15:33:24;23.80;74.70
12819;DHT22;6474;53.474;9.894;2023-07-24T15:35:51;23.70;74.60
12819;DHT22;6474;53.474;9.894;2023-07-24T15:38:19;23.60;74.30
12819;DHT22;6474;53.474;9.894;2023-07-24T15:40:47;23.30;74.30
12819;DHT22;6474;53.474;9.894;2023-07-24T15:43:15;22.90;74.50
12819;DHT22;6474;53.474;9.894;2023-07-24T15:45:44;22.60;74.90
12819;DHT22;6474;53.474;9.894;2023-07-24T15:48:13;22.30;75.00
12819;DHT22;6474;53.474;9.894;2023-07-24T15:50:51;22.10;75.20
12819;DHT22;6474;53.474;9.894;2023-07-24T15:53:19;21.90;75.50
12819;DHT22;6474;53.474;9.894;2023-07-24T15:55:47;21.80;75.70
12819;DHT22;6474;53.474;9.894;2023-07-24T15:58:15;21.60;75.70